Time;durP1;ratioP1;P1;durP2;ratioP2;P2;SDS_P1;SDS_P2;PMS_P1;PMS_P2;Temp;Humidity;BMP_temperature;BMP_pressure;BME280_temperature;BME280_humidity;BME280_pressure;Samples;Min_cycle;Max_cycle;Signal;HPM_P1;HPM_P2
2021/07/22 00:01:58;;;;;;;9.20;7.57;;;;;;;;;;5082659;28;20553;-71
2021/07/22 00:04:26;;;;;;;11.60;8.00;;;;;;;;;;5082288;28;20508;-72
2021/07/22 00:06:54;;;;;;;10.00;8.20;;;;;;;;;;5082167;28;20456;-71
2021/07/22 00:09:23;;;;;;;12.73;7.07;;;;;;;;;;5082628;28;20460;-72
2021/07/22 00:11:50;;;;;;;13.97;7.70;;;;;;;;;;5082045;28;20505;-71
2021/07/22 00:14:19;;;;;;;12.23;8.90;;;;;;;;;;5082543;28;20488;-71
2021/07/22 00:16:47;;;;;;;14.10;7.70;;;;;;;;;;5082509;28;20506;-71
2021/07/22 00:19:15;;;;;;;12.60;8.23;;;;;;;;;;5078333;28;20521;-72
2021/07/22 00:21:42;;;;;;;12.87;7.57;;;;;;;;;;5078682;28;20449;-72
2021/07/22 00:24:10;;;;;;;11.50;8.10;;;;;;;;;;5079421;28;20488;-74
2021/07/22 00:26:40;;;;;;;10.80;7.70;;;;;;;;;;5079131;28;20460;-71
2021/07/22 00:29:08;;;;;;;10.80;7.57;;;;;;;;;;5059096;28;20493;-72
2021/07/22 00:31:36;;;;;;;12.07;8.20;;;;;;;;;;5058875;28;20457;-72
2021/07/22 00:34:03;;;;;;;12.90;8.13;;;;;;;;;;5058756;28;20508;-71
2021/07/22 00:36:31;;;;;;;11.50;8.70;;;;;;;;;;5058541;28;20485;-72
2021/07/22 00:38:59;;;;;;;12.20;7.90;;;;;;;;;;5059072;28;20468;-71
2021/07/22 00:41:27;;;;;;;11.10;8.10;;;;;;;;;;5058187;28;20446;-71
2021/07/22 00:43:56;;;;;;;18.37;8.50;;;;;;;;;;5058609;28;20517;-72
2021/07/22 00:46:24;;;;;;;11.50;7.53;;;;;;;;;;5058592;28;20446;-71
2021/07/22 00:48:52;;;;;;;11.37;8.10;;;;;;;;;;5058690;28;20462;-71
2021/07/22 00:51:19;;;;;;;11.60;7.87;;;;;;;;;;5058812;28;20461;-72
2021/07/22 00:53:48;;;;;;;12.13;9.00;;;;;;;;;;5058682;28;20437;-71
2021/07/22 00:56:16;;;;;;;10.43;7.93;;;;;;;;;;5058388;28;20484;-70
2021/07/22 00:58:44;;;;;;;13.33;7.90;;;;;;;;;;5058796;28;20881;-71
2021/07/22 01:01:13;;;;;;;13.43;8.50;;;;;;;;;;5058707;28;20869;-72
2021/07/22 01:03:44;;;;;;;11.47;8.43;;;;;;;;;;5058124;28;20789;-72
2021/07/22 01:06:12;;;;;;;11.60;8.80;;;;;;;;;;5058593;28;20726;-72
2021/07/22 01:08:39;;;;;;;11.00;8.17;;;;;;;;;;5058550;28;20473;-71
2021/07/22 01:11:07;;;;;;;13.20;8.23;;;;;;;;;;5058859;28;20515;-70
2021/07/22 01:13:35;;;;;;;11.90;8.83;;;;;;;;;;5058303;28;20633;-70
2021/07/22 01:16:03;;;;;;;11.93;7.80;;;;;;;;;;5058004;28;20489;-70
2021/07/22 01:18:33;;;;;;;11.00;7.77;;;;;;;;;;5058149;28;20457;-70
2021/07/22 01:21:02;;;;;;;11.70;7.90;;;;;;;;;;5058532;28;20481;-70
2021/07/22 01:23:30;;;;;;;11.20;6.93;;;;;;;;;;5058337;28;20794;-71
2021/07/22 01:25:57;;;;;;;13.67;8.07;;;;;;;;;;5057855;28;20513;-71
2021/07/22 01:28:25;;;;;;;11.60;8.43;;;;;;;;;;5057988;28;20823;-71
2021/07/22 01:30:53;;;;;;;12.87;8.57;;;;;;;;;;5057931;28;20702;-72
2021/07/22 01:33:21;;;;;;;15.33;9.90;;;;;;;;;;5058055;28;20472;-71
2021/07/22 01:35:48;;;;;;;12.57;7.67;;;;;;;;;;5058275;28;20453;-72
2021/07/22 01:38:18;;;;;;;10.50;7.90;;;;;;;;;;5057746;28;20493;-72
2021/07/22 01:40:46;;;;;;;13.40;9.57;;;;;;;;;;5057937;28;20800;-71
2021/07/22 01:43:13;;;;;;;14.20;8.47;;;;;;;;;;5058035;28;20465;-71
2021/07/22 01:45:41;;;;;;;11.73;8.33;;;;;;;;;;5057515;28;20535;-71
2021/07/22 01:48:09;;;;;;;13.20;9.27;;;;;;;;;;5057780;28;20468;-71
2021/07/22 01:50:37;;;;;;;14.57;8.80;;;;;;;;;;5057795;28;20838;-72
2021/07/22 01:53:05;;;;;;;13.87;7.40;;;;;;;;;;5057554;28;20482;-72
2021/07/22 01:55:34;;;;;;;11.80;8.13;;;;;;;;;;5057587;28;20542;-71
2021/07/22 01:58:02;;;;;;;12.57;7.80;;;;;;;;;;5057640;28;20519;-72
2021/07/22 02:00:30;;;;;;;10.20;9.10;;;;;;;;;;5057700;28;20503;-72
2021/07/22 02:02:58;;;;;;;10.33;8.03;;;;;;;;;;5057313;28;20532;-71
2021/07/22 02:05:25;;;;;;;11.73;8.90;;;;;;;;;;5057438;28;20493;-71
2021/07/22 02:07:54;;;;;;;11.93;8.27;;;;;;;;;;5057507;28;20484;-71
2021/07/22 02:10:21;;;;;;;11.70;7.63;;;;;;;;;;5057997;28;20446;-71
2021/07/22 02:12:50;;;;;;;13.53;8.93;;;;;;;;;;5057260;28;20488;-72
2021/07/22 02:15:18;;;;;;;13.37;9.50;;;;;;;;;;5057337;28;20473;-71
2021/07/22 02:17:47;;;;;;;13.10;8.33;;;;;;;;;;5057104;28;20441;-71
2021/07/22 02:20:14;;;;;;;11.23;8.00;;;;;;;;;;5057367;28;20458;-72
2021/07/22 02:22:42;;;;;;;14.77;8.47;;;;;;;;;;5057143;28;20449;-71
2021/07/22 02:25:10;;;;;;;11.20;8.97;;;;;;;;;;5057277;28;20485;-71
2021/07/22 02:27:39;;;;;;;11.47;8.30;;;;;;;;;;5057009;28;20503;-71
2021/07/22 02:30:09;;;;;;;11.33;8.10;;;;;;;;;;5057273;28;20458;-71
2021/07/22 02:32:38;;;;;;;16.53;8.10;;;;;;;;;;5057043;28;20450;-71
2021/07/22 02:35:06;;;;;;;11.37;7.47;;;;;;;;;;5056816;28;20881;-71
2021/07/22 02:37:34;;;;;;;13.23;8.80;;;;;;;;;;5056810;28;20457;-71
2021/07/22 02:40:01;;;;;;;14.20;8.90;;;;;;;;;;5057915;28;20457;-71
2021/07/22 02:42:30;;;;;;;13.57;8.90;;;;;;;;;;5055979;28;20518;-71
2021/07/22 02:44:57;;;;;;;11.53;8.20;;;;;;;;;;5057692;28;20497;-71
2021/07/22 02:47:27;;;;;;;15.47;9.07;;;;;;;;;;5056133;28;20449;-71
2021/07/22 02:49:55;;;;;;;11.97;8.00;;;;;;;;;;5056362;28;20466;-71
2021/07/22 02:52:23;;;;;;;11.80;8.43;;;;;;;;;;5056698;28;20457;-71
2021/07/22 02:54:51;;;;;;;14.80;8.70;;;;;;;;;;5056917;28;20489;-71
2021/07/22 02:57:18;;;;;;;13.23;9.50;;;;;;;;;;5056537;28;20453;-71
2021/07/22 02:59:46;;;;;;;12.20;8.33;;;;;;;;;;5056589;28;20476;-71
2021/07/22 03:02:14;;;;;;;13.37;9.80;;;;;;;;;;5056641;28;20983;-70
2021/07/22 03:04:43;;;;;;;15.70;9.73;;;;;;;;;;5056899;28;20574;-71
2021/07/22 03:07:11;;;;;;;18.53;11.40;;;;;;;;;;5061842;28;20507;-71
2021/07/22 03:09:40;;;;;;;15.90;9.30;;;;;;;;;;5085346;28;20453;-71
2021/07/22 03:12:08;;;;;;;11.80;8.80;;;;;;;;;;5086076;28;20517;-71
2021/07/22 03:14:36;;;;;;;16.90;10.03;;;;;;;;;;5076353;28;20487;-71
2021/07/22 03:17:04;;;;;;;11.97;9.73;;;;;;;;;;5077009;28;20874;-71
2021/07/22 03:19:32;;;;;;;14.53;9.63;;;;;;;;;;5076638;28;20795;-71
2021/07/22 03:22:01;;;;;;;14.27;9.90;;;;;;;;;;5076902;28;20452;-71
2021/07/22 03:24:29;;;;;;;13.00;8.90;;;;;;;;;;5076432;28;20487;-71
2021/07/22 03:26:58;;;;;;;11.30;8.00;;;;;;;;;;5076218;28;20455;-71
2021/07/22 03:29:26;;;;;;;11.73;9.10;;;;;;;;;;5076177;28;20868;-71
2021/07/22 03:31:55;;;;;;;16.67;9.77;;;;;;;;;;5076396;28;20450;-72
2021/07/22 03:34:27;;;;;;;14.90;9.93;;;;;;;;;;5076104;28;20464;-72
2021/07/22 03:36:55;;;;;;;16.77;9.73;;;;;;;;;;5076253;28;20517;-71
2021/07/22 03:39:24;;;;;;;14.63;8.60;;;;;;;;;;5076093;28;20464;-71
2021/07/22 03:41:52;;;;;;;14.87;9.23;;;;;;;;;;5076197;28;20453;-71
2021/07/22 03:44:20;;;;;;;15.00;8.13;;;;;;;;;;5076042;28;20879;-71
2021/07/22 03:46:47;;;;;;;11.47;8.10;;;;;;;;;;5075760;28;20557;-71
2021/07/22 03:49:15;;;;;;;15.20;8.13;;;;;;;;;;5076159;28;20523;-71
2021/07/22 03:51:43;;;;;;;12.20;8.37;;;;;;;;;;5076066;28;20433;-71
2021/07/22 03:54:11;;;;;;;10.93;8.27;;;;;;;;;;5077746;28;20460;-71
2021/07/22 03:56:40;;;;;;;10.93;7.57;;;;;;;;;;5079225;28;20505;-71
2021/07/22 03:59:08;;;;;;;12.63;8.17;;;;;;;;;;5079158;28;20456;-71
2021/07/22 04:01:36;;;;;;;19.70;8.30;;;;;;;;;;5079212;28;20726;-71
2021/07/22 04:04:04;;;;;;;11.37;8.30;;;;;;;;;;5079366;28;20456;-71
2021/07/22 04:06:35;;;;;;;13.77;9.33;;;;;;;;;;5079445;28;20480;-71
2021/07/22 04:09:03;;;;;;;16.30;8.90;;;;;;;;;;5079811;28;20523;-71
2021/07/22 04:11:34;;;;;;;14.77;9.93;;;;;;;;;;5079308;28;20525;-71
2021/07/22 04:14:03;;;;;;;15.17;8.23;;;;;;;;;;5077692;28;20805;-71
2021/07/22 04:16:31;;;;;;;12.00;8.33;;;;;;;;;;5079277;28;20456;-71
2021/07/22 04:18:59;;;;;;;12.17;8.30;;;;;;;;;;5078976;28;20448;-71
2021/07/22 04:21:26;;;;;;;13.13;10.13;;;;;;;;;;5079540;28;20521;-71
2021/07/22 04:23:54;;;;;;;14.17;8.60;;;;;;;;;;5079167;28;20881;-71
2021/07/22 04:26:22;;;;;;;13.77;9.30;;;;;;;;;;5079259;28;21191;-71
2021/07/22 04:28:50;;;;;;;14.23;9.30;;;;;;;;;;5078710;28;20464;-71
2021/07/22 04:31:19;;;;;;;12.47;8.33;;;;;;;;;;5078760;28;20465;-71
2021/07/22 04:33:48;;;;;;;15.00;10.50;;;;;;;;;;5078905;28;20849;-71
2021/07/22 04:36:16;;;;;;;13.47;9.70;;;;;;;;;;5078837;28;20455;-71
2021/07/22 04:38:44;;;;;;;14.33;9.17;;;;;;;;;;5082921;28;20861;-71
2021/07/22 04:41:11;;;;;;;17.63;8.70;;;;;;;;;;5078922;28;20456;-71
2021/07/22 04:43:39;;;;;;;14.53;9.17;;;;;;;;;;5078608;28;20521;-71
2021/07/22 04:46:07;;;;;;;11.07;8.30;;;;;;;;;;5078231;28;20516;-71
2021/07/22 04:48:36;;;;;;;11.47;7.87;;;;;;;;;;5077108;28;20452;-71
2021/07/22 04:51:05;;;;;;;12.60;8.83;;;;;;;;;;5078678;28;20468;-71
2021/07/22 04:53:34;;;;;;;12.07;7.33;;;;;;;;;;5077983;28;20495;-71
2021/07/22 04:56:02;;;;;;;12.63;8.10;;;;;;;;;;5078212;28;20570;-71
2021/07/22 04:58:30;;;;;;;12.07;8.50;;;;;;;;;;5077652;28;20449;-71
2021/07/22 05:00:57;;;;;;;11.77;7.07;;;;;;;;;;5078619;28;20467;-71
2021/07/22 05:03:25;;;;;;;7.20;6.40;;;;;;;;;;5077726;28;20449;-71
2021/07/22 05:05:55;;;;;;;7.87;4.83;;;;;;;;;;5076970;28;20597;-72
2021/07/22 05:08:22;;;;;;;7.13;5.00;;;;;;;;;;5077899;28;20461;-71
2021/07/22 05:10:50;;;;;;;10.43;5.00;;;;;;;;;;5078092;28;20464;-71
2021/07/22 05:13:18;;;;;;;6.90;4.00;;;;;;;;;;5077741;28;20538;-71
2021/07/22 05:15:46;;;;;;;7.70;4.60;;;;;;;;;;5077786;28;20502;-71
2021/07/22 05:18:17;;;;;;;11.40;4.80;;;;;;;;;;5077638;28;20453;-72
2021/07/22 05:20:44;;;;;;;8.57;4.60;;;;;;;;;;5077491;28;20456;-72
2021/07/22 05:23:14;;;;;;;8.00;5.33;;;;;;;;;;5077216;28;20449;-71
2021/07/22 05:25:41;;;;;;;7.60;5.50;;;;;;;;;;5076809;28;21236;-71
2021/07/22 05:28:09;;;;;;;10.57;5.80;;;;;;;;;;5057517;28;20448;-71
2021/07/22 05:30:38;;;;;;;7.13;4.27;;;;;;;;;;5057470;28;20458;-72
2021/07/22 05:33:07;;;;;;;9.83;5.47;;;;;;;;;;5057520;28;20446;-71
2021/07/22 05:35:35;;;;;;;12.93;5.73;;;;;;;;;;5057175;28;20457;-71
2021/07/22 05:38:03;;;;;;;10.30;4.60;;;;;;;;;;5056893;28;20449;-71
2021/07/22 05:40:35;;;;;;;7.90;5.00;;;;;;;;;;5060240;28;20457;-72
2021/07/22 05:43:03;;;;;;;9.27;5.07;;;;;;;;;;5056865;28;20449;-71
2021/07/22 05:45:31;;;;;;;7.23;5.63;;;;;;;;;;5056285;28;20547;-72
2021/07/22 05:47:59;;;;;;;6.90;4.30;;;;;;;;;;5056006;28;20453;-72
2021/07/22 05:50:27;;;;;;;10.00;5.57;;;;;;;;;;5056696;28;20461;-71
2021/07/22 05:52:55;;;;;;;7.40;5.03;;;;;;;;;;5075356;28;20456;-72
2021/07/22 05:55:23;;;;;;;7.10;5.40;;;;;;;;;;5076052;28;20456;-71
2021/07/22 05:57:53;;;;;;;7.00;5.40;;;;;;;;;;5056427;28;20452;-72
2021/07/22 06:00:21;;;;;;;8.23;5.60;;;;;;;;;;5056583;28;20469;-72
2021/07/22 06:02:49;;;;;;;8.50;5.10;;;;;;;;;;5058667;28;20453;-72
2021/07/22 06:05:19;;;;;;;8.20;5.23;;;;;;;;;;5070698;28;20876;-71
2021/07/22 06:07:47;;;;;;;9.20;5.10;;;;;;;;;;5075559;28;20456;-71
2021/07/22 06:10:15;;;;;;;6.97;5.10;;;;;;;;;;5067449;28;20472;-72
2021/07/22 06:12:44;;;;;;;9.47;6.20;;;;;;;;;;5056938;28;20488;-73
2021/07/22 06:15:14;;;;;;;11.73;5.47;;;;;;;;;;5057548;28;20464;-72
2021/07/22 06:17:42;;;;;;;11.13;6.10;;;;;;;;;;5054482;28;20449;-71
2021/07/22 06:20:16;;;;;;;7.60;5.57;;;;;;;;;;5056503;28;20481;-72
2021/07/22 06:22:45;;;;;;;6.63;5.03;;;;;;;;;;5076040;28;20547;-72
2021/07/22 06:25:19;;;;;;;6.47;4.73;;;;;;;;;;5076202;28;20944;-72
2021/07/22 06:27:50;;;;;;;7.77;5.80;;;;;;;;;;5074553;28;20429;-72
2021/07/22 06:30:19;;;;;;;8.10;4.90;;;;;;;;;;5087506;28;20448;-71
2021/07/22 06:32:53;;;;;;;6.63;4.40;;;;;;;;;;5083975;28;20445;-71
2021/07/22 06:35:22;;;;;;;6.60;4.47;;;;;;;;;;5094993;28;20501;-72
2021/07/22 06:37:53;;;;;;;6.17;5.13;;;;;;;;;;5094061;28;20453;-70
2021/07/22 06:40:22;;;;;;;8.80;7.07;;;;;;;;;;5075223;28;20464;-70
2021/07/22 06:42:51;;;;;;;7.87;4.90;;;;;;;;;;5074894;28;20441;-71
2021/07/22 06:45:21;;;;;;;14.30;8.10;;;;;;;;;;5075144;28;20480;-70
2021/07/22 06:47:49;;;;;;;9.00;4.70;;;;;;;;;;5075513;28;20449;-70
2021/07/22 06:50:16;;;;;;;6.50;4.70;;;;;;;;;;5075299;28;20494;-70
2021/07/22 06:52:44;;;;;;;6.67;5.27;;;;;;;;;;5074204;28;20449;-70
2021/07/22 06:55:13;;;;;;;10.17;4.70;;;;;;;;;;5075373;28;20519;-70
2021/07/22 06:57:40;;;;;;;6.67;5.27;;;;;;;;;;5074045;28;20448;-71
2021/07/22 07:00:09;;;;;;;8.50;5.13;;;;;;;;;;5066566;28;20858;-71
2021/07/22 07:02:38;;;;;;;11.03;5.47;;;;;;;;;;5077882;28;20774;-71
2021/07/22 07:05:07;;;;;;;11.73;4.60;;;;;;;;;;5094533;28;20762;-72
2021/07/22 07:07:35;;;;;;;7.20;5.33;;;;;;;;;;5094988;28;20483;-73
2021/07/22 07:10:03;;;;;;;9.17;5.87;;;;;;;;;;5096600;28;20452;-72
2021/07/22 07:12:33;;;;;;;12.10;5.00;;;;;;;;;;5112720;28;20436;-72
2021/07/22 07:15:01;;;;;;;6.67;4.87;;;;;;;;;;5098707;28;20468;-71
2021/07/22 07:17:29;;;;;;;12.87;4.73;;;;;;;;;;5076414;28;20443;-72
2021/07/22 07:19:58;;;;;;;5.50;4.30;;;;;;;;;;5075415;28;20518;-71
2021/07/22 07:22:26;;;;;;;6.33;4.23;;;;;;;;;;5074914;28;20448;-72
2021/07/22 07:24:56;;;;;;;9.67;5.03;;;;;;;;;;5075238;28;20525;-72
2021/07/22 07:27:35;;;;;;;6.40;4.80;;;;;;;;;;5075953;28;20472;-71
2021/07/22 07:30:04;;;;;;;6.13;4.60;;;;;;;;;;5079598;28;20464;-72
2021/07/22 07:32:35;;;;;;;8.03;4.70;;;;;;;;;;5074747;28;20469;-73
2021/07/22 07:35:04;;;;;;;5.70;3.60;;;;;;;;;;5058176;28;20556;-72
2021/07/22 07:37:35;;;;;;;8.30;4.63;;;;;;;;;;5077224;28;20860;-73
2021/07/22 07:40:03;;;;;;;8.20;4.53;;;;;;;;;;5078923;28;20525;-73
2021/07/22 07:42:30;;;;;;;5.73;4.00;;;;;;;;;;5075074;28;20454;-72
2021/07/22 07:47:45;;;;;;;8.67;5.00;;;;;;;;;;5029735;28;20921;-73
2021/07/22 07:50:20;;;;;;;7.20;5.47;;;;;;;;;;5063129;28;20463;-72
2021/07/22 07:53:14;;;;;;;8.40;4.90;;;;;;;;;;5098880;28;20942;-72
2021/07/22 07:55:42;;;;;;;6.90;4.80;;;;;;;;;;5098922;28;20926;-71
2021/07/22 07:58:12;;;;;;;6.63;4.40;;;;;;;;;;5088292;28;20538;-72
2021/07/22 08:00:43;;;;;;;4.50;3.70;;;;;;;;;;5078006;28;20510;-72
2021/07/22 08:03:19;;;;;;;7.30;4.77;;;;;;;;;;5076030;28;20787;-72
2021/07/22 08:05:50;;;;;;;6.93;5.10;;;;;;;;;;5074246;28;20460;-72
2021/07/22 08:08:22;;;;;;;6.17;4.00;;;;;;;;;;5073084;28;20452;-73
2021/07/22 08:10:53;;;;;;;7.53;4.40;;;;;;;;;;5077543;28;20441;-73
2021/07/22 08:13:21;;;;;;;7.27;4.33;;;;;;;;;;5063204;28;20460;-71
2021/07/22 08:15:49;;;;;;;7.13;4.87;;;;;;;;;;5077185;28;20448;-72
2021/07/22 08:18:25;;;;;;;7.83;5.20;;;;;;;;;;5069313;28;20473;-73
2021/07/22 08:21:03;;;;;;;8.10;5.43;;;;;;;;;;5074666;28;20533;-72
2021/07/22 08:23:41;;;;;;;5.33;4.03;;;;;;;;;;5077027;28;20467;-71
2021/07/22 08:26:11;;;;;;;7.93;4.53;;;;;;;;;;5076427;28;20511;-71
2021/07/22 08:28:40;;;;;;;7.17;5.10;;;;;;;;;;5077554;28;20460;-71
2021/07/22 08:31:09;;;;;;;7.67;5.03;;;;;;;;;;5081797;28;20904;-71
2021/07/22 08:33:36;;;;;;;7.27;5.10;;;;;;;;;;5077874;28;20906;-71
2021/07/22 08:36:06;;;;;;;7.73;4.77;;;;;;;;;;5088637;28;20448;-71
2021/07/22 08:38:37;;;;;;;5.20;3.87;;;;;;;;;;5084892;28;20934;-72
2021/07/22 08:41:05;;;;;;;7.20;4.23;;;;;;;;;;5087549;28;20522;-71
2021/07/22 08:43:34;;;;;;;6.63;4.13;;;;;;;;;;5085258;28;20476;-71
2021/07/22 08:46:01;;;;;;;7.00;4.40;;;;;;;;;;5086540;28;20455;-70
2021/07/22 08:48:30;;;;;;;10.37;6.13;;;;;;;;;;5094202;28;20582;-71
2021/07/22 08:50:59;;;;;;;8.20;5.17;;;;;;;;;;5097531;28;20450;-71
2021/07/22 08:53:30;;;;;;;9.37;6.00;;;;;;;;;;5088193;28;20469;-72
2021/07/22 08:56:09;;;;;;;6.40;4.93;;;;;;;;;;5065780;28;20879;-71
2021/07/22 08:58:46;;;;;;;6.97;5.37;;;;;;;;;;5077184;28;20488;-72
2021/07/22 09:01:16;;;;;;;6.30;4.40;;;;;;;;;;5076712;28;20452;-71
2021/07/22 09:03:54;;;;;;;6.17;4.70;;;;;;;;;;5077071;28;20461;-71
2021/07/22 09:06:22;;;;;;;9.00;5.33;;;;;;;;;;5077251;28;20518;-71
2021/07/22 09:08:54;;;;;;;5.20;4.60;;;;;;;;;;5072366;28;20448;-71
2021/07/22 09:11:22;;;;;;;6.43;5.17;;;;;;;;;;5066680;28;20437;-71
2021/07/22 09:14:06;;;;;;;7.13;4.50;;;;;;;;;;5069657;28;20748;-71
2021/07/22 09:16:38;;;;;;;5.97;5.17;;;;;;;;;;5075961;28;20433;-73
2021/07/22 09:19:06;;;;;;;7.57;4.80;;;;;;;;;;5076022;28;20544;-71
2021/07/22 09:21:34;;;;;;;6.97;5.10;;;;;;;;;;5074868;28;20448;-71
2021/07/22 09:24:09;;;;;;;7.63;4.80;;;;;;;;;;5056092;28;20531;-71
2021/07/22 09:26:38;;;;;;;8.33;4.90;;;;;;;;;;5055577;28;20528;-72
2021/07/22 09:29:07;;;;;;;6.50;4.20;;;;;;;;;;5055248;28;20880;-73
2021/07/22 09:31:36;;;;;;;8.77;5.60;;;;;;;;;;5060164;28;20453;-73
2021/07/22 09:34:20;;;;;;;9.00;4.90;;;;;;;;;;5073099;28;20556;-71
2021/07/22 09:36:48;;;;;;;5.37;4.50;;;;;;;;;;5065171;28;20449;-71
2021/07/22 09:39:22;;;;;;;9.67;5.70;;;;;;;;;;5075605;28;20729;-71
2021/07/22 09:41:57;;;;;;;6.90;4.90;;;;;;;;;;5076033;28;20448;-71
2021/07/22 09:44:30;;;;;;;7.40;5.10;;;;;;;;;;5060357;28;20792;-71
2021/07/22 09:46:58;;;;;;;7.93;4.73;;;;;;;;;;5057878;28;20906;-71
2021/07/22 09:49:35;;;;;;;6.13;4.30;;;;;;;;;;5071665;28;21070;-71
2021/07/22 09:52:11;;;;;;;6.37;5.00;;;;;;;;;;5080960;28;20719;-71
2021/07/22 09:54:46;;;;;;;8.23;5.60;;;;;;;;;;5066400;28;20445;-71
2021/07/22 09:57:21;;;;;;;9.43;5.10;;;;;;;;;;5072465;28;20448;-71
2021/07/22 09:59:53;;;;;;;6.60;4.83;;;;;;;;;;5060289;28;20556;-71
2021/07/22 10:02:43;;;;;;;7.43;5.00;;;;;;;;;;5074118;28;21143;-71
2021/07/22 10:05:11;;;;;;;6.70;5.00;;;;;;;;;;5064532;28;20442;-70
2021/07/22 10:07:41;;;;;;;9.83;4.90;;;;;;;;;;5056756;28;20916;-72
2021/07/22 10:10:12;;;;;;;7.20;5.53;;;;;;;;;;5068499;28;20457;-71
2021/07/22 10:12:44;;;;;;;7.50;5.70;;;;;;;;;;5074961;28;20460;-71
2021/07/22 10:15:16;;;;;;;8.53;5.17;;;;;;;;;;5075054;28;20514;-72
2021/07/22 10:17:49;;;;;;;10.97;4.77;;;;;;;;;;5075204;28;20730;-70
2021/07/22 10:20:22;;;;;;;8.07;5.30;;;;;;;;;;5074617;28;20468;-71
2021/07/22 10:22:50;;;;;;;6.80;4.70;;;;;;;;;;5075295;28;20452;-71
2021/07/22 10:25:20;;;;;;;6.70;5.13;;;;;;;;;;5075195;28;20457;-71
2021/07/22 10:27:48;;;;;;;7.47;4.27;;;;;;;;;;5074094;28;20840;-72
2021/07/22 10:30:20;;;;;;;5.07;4.57;;;;;;;;;;5074874;28;20444;-70
2021/07/22 10:32:51;;;;;;;6.80;4.60;;;;;;;;;;5074978;28;20468;-72
2021/07/22 10:35:21;;;;;;;5.67;4.17;;;;;;;;;;5070637;28;20550;-71
2021/07/22 10:38:07;;;;;;;9.20;4.77;;;;;;;;;;5061401;28;20481;-72
2021/07/22 10:40:57;;;;;;;5.50;4.13;;;;;;;;;;5060115;28;20752;-72
2021/07/22 10:43:46;;;;;;;6.00;4.13;;;;;;;;;;5069416;28;20475;-73
2021/07/22 10:46:14;;;;;;;7.73;4.03;;;;;;;;;;5074183;28;20475;-72
2021/07/22 10:48:43;;;;;;;7.50;6.27;;;;;;;;;;5073491;28;20495;-72
2021/07/22 10:51:14;;;;;;;6.73;4.57;;;;;;;;;;5070309;28;20843;-72
2021/07/22 10:53:47;;;;;;;7.20;5.43;;;;;;;;;;5072740;28;20515;-71
2021/07/22 10:56:17;;;;;;;12.13;5.23;;;;;;;;;;5075164;28;20452;-71
2021/07/22 10:58:52;;;;;;;6.90;4.90;;;;;;;;;;5068928;28;20510;-71
2021/07/22 11:01:38;;;;;;;6.97;4.73;;;;;;;;;;5072201;28;20447;-72
2021/07/22 11:04:07;;;;;;;7.40;4.90;;;;;;;;;;5074472;28;20461;-70
2021/07/22 11:06:50;;;;;;;6.43;3.80;;;;;;;;;;5081078;28;20455;-70
2021/07/22 11:09:19;;;;;;;6.70;5.00;;;;;;;;;;5075540;28;20448;-72
2021/07/22 11:11:49;;;;;;;7.20;5.10;;;;;;;;;;5082209;28;20519;-71
2021/07/22 11:14:34;;;;;;;7.20;5.30;;;;;;;;;;5086237;28;20540;-72
2021/07/22 11:17:07;;;;;;;6.83;5.07;;;;;;;;;;5089187;28;20455;-72
2021/07/22 11:19:34;;;;;;;5.70;4.57;;;;;;;;;;5068705;28;20777;-71
2021/07/22 11:22:04;;;;;;;7.40;4.33;;;;;;;;;;5062555;28;20522;-71
2021/07/22 11:24:32;;;;;;;5.50;3.70;;;;;;;;;;5066736;28;20522;-71
2021/07/22 11:27:03;;;;;;;7.70;4.90;;;;;;;;;;5073389;28;20465;-71
2021/07/22 11:29:34;;;;;;;7.67;4.33;;;;;;;;;;5072163;28;20460;-72
2021/07/22 11:32:04;;;;;;;7.00;4.20;;;;;;;;;;5073533;28;20464;-72
2021/07/22 11:34:33;;;;;;;7.07;4.70;;;;;;;;;;5069664;28;20539;-72
2021/07/22 11:37:01;;;;;;;5.47;4.47;;;;;;;;;;5072616;28;20471;-73
2021/07/22 11:39:33;;;;;;;7.53;5.20;;;;;;;;;;5072606;28;20510;-72
2021/07/22 11:42:08;;;;;;;5.50;4.20;;;;;;;;;;5069362;28;20567;-72
2021/07/22 11:44:42;;;;;;;6.27;5.40;;;;;;;;;;5073806;28;20538;-73
2021/07/22 11:47:16;;;;;;;4.93;4.30;;;;;;;;;;5070470;28;20459;-73
2021/07/22 11:49:44;;;;;;;7.73;4.30;;;;;;;;;;5057361;28;20449;-71
2021/07/22 11:52:12;;;;;;;7.47;4.50;;;;;;;;;;5056498;28;20518;-71
2021/07/22 11:54:40;;;;;;;5.40;4.20;;;;;;;;;;5052970;28;20532;-71
2021/07/22 11:57:08;;;;;;;6.10;4.07;;;;;;;;;;5053017;28;20457;-71
2021/07/22 11:59:37;;;;;;;11.63;5.20;;;;;;;;;;5065509;28;20463;-71
2021/07/22 12:02:08;;;;;;;7.77;4.97;;;;;;;;;;5057302;28;20461;-71
2021/07/22 12:04:38;;;;;;;4.10;3.70;;;;;;;;;;5059842;28;20898;-71
2021/07/22 12:07:09;;;;;;;5.03;3.57;;;;;;;;;;5053067;28;20765;-70
2021/07/22 12:09:55;;;;;;;9.20;4.80;;;;;;;;;;5075379;28;20448;-70
2021/07/22 12:12:29;;;;;;;7.43;4.23;;;;;;;;;;5067337;28;20460;-71
2021/07/22 12:15:08;;;;;;;7.97;4.33;;;;;;;;;;5076805;28;20550;-71
2021/07/22 12:17:39;;;;;;;7.33;4.30;;;;;;;;;;5072875;28;20539;-75
2021/07/22 12:20:14;;;;;;;8.77;3.37;;;;;;;;;;5076727;28;20482;-71
2021/07/22 12:22:51;;;;;;;7.97;4.60;;;;;;;;;;5063469;28;21070;-70
2021/07/22 12:25:28;;;;;;;5.53;3.50;;;;;;;;;;5076233;28;20448;-71
2021/07/22 12:27:57;;;;;;;6.70;4.60;;;;;;;;;;5062611;28;20928;-71
2021/07/22 12:30:26;;;;;;;8.57;5.47;;;;;;;;;;5055667;28;20461;-71
2021/07/22 12:32:57;;;;;;;9.03;4.97;;;;;;;;;;5056102;28;20552;-71
2021/07/22 12:35:34;;;;;;;7.33;4.03;;;;;;;;;;5073831;28;20497;-71
2021/07/22 12:38:04;;;;;;;6.20;4.07;;;;;;;;;;5075242;28;20461;-71
2021/07/22 12:40:39;;;;;;;7.50;4.70;;;;;;;;;;5077266;28;20456;-71
2021/07/22 12:43:11;;;;;;;5.63;3.83;;;;;;;;;;5075304;28;20452;-73
2021/07/22 12:45:47;;;;;;;5.63;4.37;;;;;;;;;;5067793;28;20479;-72
2021/07/22 12:48:21;;;;;;;5.80;4.37;;;;;;;;;;5072810;28;20477;-71
2021/07/22 12:50:56;;;;;;;7.13;3.97;;;;;;;;;;5072396;28;20824;-72
2021/07/22 12:53:33;;;;;;;4.93;3.93;;;;;;;;;;5070497;28;20451;-71
2021/07/22 12:56:01;;;;;;;4.47;3.40;;;;;;;;;;5076164;28;20492;-71
2021/07/22 12:58:29;;;;;;;4.20;3.50;;;;;;;;;;5079844;28;20444;-71
2021/07/22 13:01:02;;;;;;;10.33;4.00;;;;;;;;;;5073833;28;20795;-71
2021/07/22 13:03:33;;;;;;;3.60;2.83;;;;;;;;;;5071143;28;20527;-71
2021/07/22 13:06:05;;;;;;;4.83;3.50;;;;;;;;;;5078387;28;20546;-72
2021/07/22 13:08:34;;;;;;;5.90;3.73;;;;;;;;;;5075847;28;20573;-72
2021/07/22 13:11:04;;;;;;;6.00;3.97;;;;;;;;;;5074675;28;20806;-72
2021/07/22 13:13:35;;;;;;;6.37;3.30;;;;;;;;;;5074732;28;20460;-71
2021/07/22 13:16:15;;;;;;;6.17;4.00;;;;;;;;;;5075029;28;20483;-71
2021/07/22 13:18:46;;;;;;;3.90;3.37;;;;;;;;;;5061740;28;20445;-71
2021/07/22 13:21:17;;;;;;;6.17;3.90;;;;;;;;;;5055155;28;20461;-70
2021/07/22 13:23:48;;;;;;;7.03;3.80;;;;;;;;;;5073533;28;20475;-71
2021/07/22 13:26:19;;;;;;;5.17;3.43;;;;;;;;;;5075503;28;20567;-70
2021/07/22 13:28:52;;;;;;;10.40;6.63;;;;;;;;;;5075454;28;20604;-70
2021/07/22 13:31:26;;;;;;;5.93;3.80;;;;;;;;;;5090424;28;20514;-71
2021/07/22 13:33:55;;;;;;;5.30;3.63;;;;;;;;;;5063452;28;20453;-70
2021/07/22 13:36:24;;;;;;;5.27;3.97;;;;;;;;;;5075352;28;20781;-70
2021/07/22 13:38:55;;;;;;;4.87;4.00;;;;;;;;;;5089307;28;20464;-72
2021/07/22 13:41:23;;;;;;;5.07;4.17;;;;;;;;;;5084014;28;20798;-71
2021/07/22 13:43:51;;;;;;;6.00;3.97;;;;;;;;;;5075581;28;20729;-72
2021/07/22 13:46:20;;;;;;;5.90;4.23;;;;;;;;;;5076193;28;20461;-71
2021/07/22 13:48:47;;;;;;;4.80;3.63;;;;;;;;;;5081567;28;20919;-71
2021/07/22 13:51:16;;;;;;;5.80;4.27;;;;;;;;;;5059788;28;20461;-71
2021/07/22 13:53:47;;;;;;;4.80;3.63;;;;;;;;;;5056328;28;20454;-71
2021/07/22 13:56:16;;;;;;;5.53;4.23;;;;;;;;;;5056713;28;20457;-70
2021/07/22 13:58:55;;;;;;;4.70;3.90;;;;;;;;;;5057511;28;20952;-70
2021/07/22 14:01:24;;;;;;;6.30;3.60;;;;;;;;;;5054568;28;20466;-72
2021/07/22 14:03:53;;;;;;;3.70;2.87;;;;;;;;;;5055742;28;20475;-71
2021/07/22 14:06:27;;;;;;;8.07;4.50;;;;;;;;;;5070547;28;20463;-71
2021/07/22 14:08:59;;;;;;;6.63;4.00;;;;;;;;;;5073435;28;20476;-70
2021/07/22 14:11:27;;;;;;;4.37;3.47;;;;;;;;;;5074705;28;20457;-72
2021/07/22 14:14:00;;;;;;;5.47;3.80;;;;;;;;;;5075809;28;20473;-71
2021/07/22 14:16:28;;;;;;;8.60;4.33;;;;;;;;;;5075793;28;20491;-72
2021/07/22 14:18:59;;;;;;;7.03;3.73;;;;;;;;;;5075455;28;20859;-71
2021/07/22 14:21:26;;;;;;;4.70;3.30;;;;;;;;;;5076009;28;20456;-71
2021/07/22 14:23:58;;;;;;;6.03;3.43;;;;;;;;;;5076275;28;20452;-72
2021/07/22 14:26:26;;;;;;;6.43;4.30;;;;;;;;;;5075049;28;20449;-73
2021/07/22 14:28:54;;;;;;;5.40;3.80;;;;;;;;;;5075617;28;20493;-72
2021/07/22 14:31:26;;;;;;;4.07;3.30;;;;;;;;;;5075343;28;20471;-72
2021/07/22 14:33:58;;;;;;;4.30;3.80;;;;;;;;;;5069083;28;20473;-73
2021/07/22 14:36:28;;;;;;;5.20;4.37;;;;;;;;;;5074531;28;20506;-71
2021/07/22 14:39:02;;;;;;;5.87;4.00;;;;;;;;;;5074443;28;20480;-71
2021/07/22 14:41:32;;;;;;;8.47;4.20;;;;;;;;;;5074546;28;20444;-71
2021/07/22 14:44:00;;;;;;;3.90;3.07;;;;;;;;;;5073700;28;20451;-71
2021/07/22 14:46:28;;;;;;;5.60;3.77;;;;;;;;;;5061081;28;20456;-72
2021/07/22 14:48:57;;;;;;;5.03;3.00;;;;;;;;;;5067953;28;20553;-72
2021/07/22 14:51:34;;;;;;;3.63;2.83;;;;;;;;;;5073500;28;20474;-72
2021/07/22 14:54:04;;;;;;;4.60;2.77;;;;;;;;;;5073997;28;20463;-71
2021/07/22 14:56:32;;;;;;;5.13;3.17;;;;;;;;;;5077694;28;20452;-72
2021/07/22 14:59:03;;;;;;;4.90;3.03;;;;;;;;;;5083855;28;20666;-72